Spade, Texas
Current Conditions -  °F | °C
As of 1:53 PM on Friday 28 Nov 2014 (Local Time) from KLBB Reporting Station
Clear Clear  
Wind Chill: 75°   Ceiling: Unl
Heat Index: 75°   Visibility: 10mi
Dew Point: 27°   Wind: 18mph
Humidity: 17%   Direction: 240°WSW
Pressure: 30"   Gusts: NA
Location:  33.93°N, 102.15°W
Report Text: KLBB 281953Z 24016KT 10SM CLR 24/M03 A3000 RMK AO2 SLP126 T02391028
Loading
Personal Weather Stations






























Interactive Weather Map New forecast layout! Learn more

10-Day Weather Forecast

Advertisements
Track Severe Weather on mobile